createdAt,value
2018-12-20T00:00:59.750Z,0
2018-12-20T00:02:01.014Z,0
2018-12-20T00:03:02.569Z,0
2018-12-20T00:04:03.835Z,0
2018-12-20T00:05:05.182Z,0
2018-12-20T00:06:06.600Z,0
2018-12-20T00:07:08.002Z,0
2018-12-20T00:08:09.426Z,0
2018-12-20T00:09:10.841Z,0
2018-12-20T00:10:12.222Z,0
2018-12-20T00:11:13.617Z,0
2018-12-20T00:12:15.114Z,0
2018-12-20T00:13:16.475Z,0
2018-12-20T00:14:17.788Z,0
2018-12-20T00:15:19.223Z,0
2018-12-20T00:16:20.692Z,0
2018-12-20T00:17:22.024Z,0
2018-12-20T00:18:23.421Z,0
2018-12-20T00:19:24.898Z,0
2018-12-20T00:20:26.168Z,0
2018-12-20T00:21:27.603Z,0
2018-12-20T00:22:28.973Z,0
2018-12-20T00:23:30.438Z,0
2018-12-20T00:24:31.777Z,0
2018-12-20T00:25:33.241Z,0
2018-12-20T00:26:34.641Z,0
2018-12-20T00:27:36.084Z,0
2018-12-20T00:28:37.466Z,0
2018-12-20T00:29:38.971Z,0
2018-12-20T00:30:40.269Z,0
2018-12-20T00:31:41.753Z,0
2018-12-20T00:32:43.119Z,0
2018-12-20T00:33:44.491Z,0
2018-12-20T00:34:45.897Z,0
2018-12-20T00:35:47.465Z,0
2018-12-20T00:36:48.679Z,0
2018-12-20T00:37:50.129Z,0
2018-12-20T00:38:51.476Z,0
2018-12-20T00:39:52.970Z,0
2018-12-20T00:40:54.260Z,0
2018-12-20T00:41:55.758Z,0
2018-12-20T00:42:57.042Z,0
2018-12-20T00:43:58.420Z,0
2018-12-20T00:44:59.865Z,0
2018-12-20T00:46:01.261Z,0
2018-12-20T00:47:02.670Z,0
2018-12-20T00:48:04.096Z,0
2018-12-20T00:49:05.470Z,0
2018-12-20T00:50:06.951Z,0
2018-12-20T00:51:08.372Z,0
2018-12-20T00:52:09.842Z,0
2018-12-20T00:53:11.244Z,0
2018-12-20T00:54:12.492Z,0
2018-12-20T00:55:13.910Z,0
2018-12-20T00:56:15.480Z,0
2018-12-20T00:57:16.836Z,0
2018-12-20T00:58:18.145Z,0
2018-12-20T00:59:19.472Z,0
2018-12-20T01:00:20.971Z,0
2018-12-20T01:01:22.271Z,0
2018-12-20T01:02:23.746Z,0
2018-12-20T01:03:25.062Z,0
2018-12-20T01:04:26.479Z,0
2018-12-20T01:05:28.019Z,0
2018-12-20T01:06:29.316Z,0
2018-12-20T01:07:30.592Z,0
2018-12-20T01:08:31.999Z,0
2018-12-20T01:09:33.467Z,0
2018-12-20T01:10:34.798Z,0
2018-12-20T01:11:36.371Z,0
2018-12-20T01:12:37.625Z,0
2018-12-20T01:13:38.997Z,0
2018-12-20T01:14:45.290Z,0
2018-12-20T01:15:41.803Z,0
2018-12-20T01:16:43.415Z,0
2018-12-20T01:17:44.600Z,0
2018-12-20T01:18:45.982Z,0
2018-12-20T01:19:47.387Z,0
2018-12-20T01:20:48.773Z,0
2018-12-20T01:21:50.312Z,0
2018-12-20T01:22:51.592Z,0
2018-12-20T01:23:53.069Z,0
2018-12-20T01:24:54.454Z,0
2018-12-20T01:25:55.894Z,0
2018-12-20T01:26:57.233Z,0
2018-12-20T01:27:58.645Z,0
2018-12-20T01:29:00.081Z,0
2018-12-20T01:30:01.495Z,0
2018-12-20T01:31:02.932Z,0
2018-12-20T01:32:04.425Z,0
2018-12-20T01:33:05.820Z,0
2018-12-20T01:34:07.136Z,0
2018-12-20T01:35:08.507Z,0
2018-12-20T01:36:10.025Z,0
2018-12-20T01:37:11.339Z,0
2018-12-20T01:38:12.772Z,0
2018-12-20T01:39:14.325Z,0
2018-12-20T01:40:15.522Z,0
2018-12-20T01:41:16.929Z,0
2018-12-20T01:42:18.342Z,0
2018-12-20T01:43:19.748Z,0
2018-12-20T01:44:21.205Z,0
2018-12-20T01:45:22.600Z,0
2018-12-20T01:46:24.020Z,0
2018-12-20T10:28:29.445Z,7192
2018-12-20T10:29:30.827Z,7240
2018-12-20T10:30:32.195Z,7260
2018-12-20T10:31:33.571Z,7400
2018-12-20T10:32:34.959Z,7596
2018-12-20T10:33:36.429Z,10260
2018-12-20T10:34:37.868Z,7884
2018-12-20T10:35:39.296Z,9372
2018-12-20T10:36:40.716Z,9876
2018-12-20T10:37:42.156Z,12700
2018-12-20T10:38:43.581Z,7124
2018-12-20T10:39:45.030Z,6616
2018-12-20T10:40:46.482Z,6384
2018-12-20T10:41:47.880Z,6224
2018-12-20T10:42:49.281Z,6072
2018-12-20T10:43:50.738Z,6352
2018-12-20T10:44:52.133Z,6488
2018-12-20T10:45:53.694Z,6728
2018-12-20T10:46:55.127Z,6788
2018-12-20T10:47:56.516Z,6664
2018-12-20T10:48:58.003Z,7068
2018-12-20T10:49:59.458Z,8208
2018-12-20T10:51:00.931Z,8064
2018-12-20T10:52:02.370Z,6588
2018-12-20T10:53:03.805Z,6864
2018-12-20T10:54:05.230Z,6256
2018-12-20T10:55:06.635Z,5292
2018-12-20T10:56:08.081Z,5100
2018-12-20T10:57:09.614Z,5208
2018-12-20T10:58:11.108Z,5808
2018-12-20T10:59:12.544Z,6752
2018-12-20T11:00:14.006Z,6544
2018-12-20T11:01:15.497Z,5828
2018-12-20T11:02:16.982Z,5820
2018-12-20T11:03:18.453Z,6192
2018-12-20T11:04:19.929Z,5612
2018-12-20T11:05:21.383Z,5216
2018-12-20T11:06:22.786Z,4668
2018-12-20T11:07:24.179Z,4760
2018-12-20T11:08:25.659Z,5100
2018-12-20T11:09:27.107Z,4720
2018-12-20T11:10:28.544Z,4804
2018-12-20T11:11:29.999Z,4808
2018-12-20T11:12:31.446Z,4136
2018-12-20T11:13:32.888Z,4380
2018-12-20T11:14:34.357Z,5652
2018-12-20T11:15:37.326Z,5936
2018-12-20T11:16:37.145Z,5820
2018-12-20T11:17:38.621Z,6304
2018-12-20T11:18:40.073Z,7328
2018-12-20T11:19:41.526Z,7820
2018-12-20T11:20:42.917Z,6456
2018-12-20T11:21:45.695Z,5340
2018-12-20T11:22:45.743Z,6236
2018-12-20T11:23:47.203Z,9140
2018-12-20T11:24:48.646Z,9232
2018-12-20T11:25:50.055Z,6848
2018-12-20T11:26:51.494Z,8780
2018-12-20T11:27:52.939Z,15680
2018-12-20T11:28:54.353Z,7800
2018-12-20T11:29:55.736Z,6932
2018-12-20T11:30:57.226Z,4948
2018-12-20T11:31:58.684Z,4648
2018-12-20T11:33:00.100Z,4912
2018-12-20T11:34:01.587Z,4564
2018-12-20T11:35:02.992Z,4588
2018-12-20T11:36:04.489Z,5224
2018-12-20T11:37:05.940Z,5592
2018-12-20T11:38:07.397Z,6132
2018-12-20T11:39:08.896Z,6684
2018-12-20T11:40:10.323Z,7440
2018-12-20T11:41:11.756Z,7472
2018-12-20T11:42:13.212Z,6468
2018-12-20T11:43:14.675Z,5960
2018-12-20T11:44:16.083Z,5692
2018-12-20T11:45:17.526Z,6444
2018-12-20T11:46:18.990Z,6408
2018-12-20T11:47:20.397Z,6760
2018-12-20T11:48:21.836Z,7036
2018-12-20T11:49:23.347Z,7284
2018-12-20T11:50:24.781Z,7252
2018-12-20T11:51:26.298Z,5988
2018-12-20T11:52:27.749Z,6088
2018-12-20T11:53:29.272Z,5328
2018-12-20T11:54:30.743Z,5072
2018-12-20T11:55:32.212Z,5824
2018-12-20T11:56:33.680Z,5708
2018-12-20T11:57:35.187Z,6940
2018-12-20T11:58:36.642Z,6728
2018-12-20T11:59:38.080Z,5800
2018-12-20T12:00:39.573Z,4588
2018-12-20T12:01:41.020Z,3976
2018-12-20T12:02:42.448Z,3772
2018-12-20T12:03:43.904Z,3648
2018-12-20T12:04:45.321Z,3768
2018-12-20T12:05:46.806Z,3804
2018-12-20T12:06:48.270Z,4868
2018-12-20T12:07:49.728Z,4312
2018-12-20T12:08:51.216Z,4296
2018-12-20T12:09:52.582Z,3864
2018-12-20T12:10:54.077Z,6252
2018-12-20T12:11:55.587Z,8656
2018-12-20T12:12:57.059Z,9776
2018-12-20T12:13:58.515Z,10324
2018-12-20T12:15:00.048Z,9836
2018-12-20T12:16:01.597Z,9456
2018-12-20T12:17:02.991Z,9156
2018-12-20T12:18:04.447Z,8448
2018-12-20T12:19:05.888Z,7664
2018-12-20T12:20:07.321Z,7752
2018-12-20T12:21:08.703Z,7368
2018-12-20T12:22:10.155Z,6196
2018-12-20T12:23:11.583Z,5568
2018-12-20T12:24:13.037Z,5592
2018-12-20T12:25:14.441Z,6000
2018-12-20T12:26:15.984Z,5564
2018-12-20T12:27:17.426Z,5980
2018-12-20T12:28:18.942Z,6520
2018-12-20T12:29:20.355Z,6672
2018-12-20T12:30:21.774Z,7672
2018-12-20T12:31:23.206Z,8900
2018-12-20T12:32:24.680Z,9616
2018-12-20T12:33:26.117Z,9600
2018-12-20T12:34:27.531Z,8776
2018-12-20T12:35:28.970Z,8624
2018-12-20T12:36:30.446Z,9028
2018-12-20T12:37:31.890Z,8844
2018-12-20T12:38:33.420Z,7728
2018-12-20T12:39:34.929Z,7608
2018-12-20T12:40:36.344Z,9224
2018-12-20T12:41:37.834Z,8540
2018-12-20T12:42:39.242Z,9276
2018-12-20T12:43:40.674Z,10084
2018-12-20T12:44:42.116Z,12656
2018-12-20T12:45:43.577Z,13244
2018-12-20T12:46:45.026Z,9092
2018-12-20T12:47:46.491Z,6584
2018-12-20T12:48:47.886Z,8600
2018-12-20T12:49:49.403Z,6264
2018-12-20T12:50:50.826Z,11292
2018-12-20T12:51:53.058Z,10192
2018-12-20T12:52:53.640Z,7836
2018-12-20T12:53:55.077Z,8344
2018-12-20T12:54:56.516Z,7512
2018-12-20T12:55:57.967Z,7040
2018-12-20T12:56:59.386Z,4788
2018-12-20T12:58:04.606Z,4528
2018-12-20T12:59:02.202Z,4256
2018-12-20T13:00:03.668Z,3800
2018-12-20T13:01:05.136Z,3544
2018-12-20T13:02:06.557Z,3464
2018-12-20T13:03:08.024Z,3560
2018-12-20T13:04:09.503Z,3620
2018-12-20T13:05:10.935Z,3856
2018-12-20T13:06:12.375Z,3972
2018-12-20T13:07:13.785Z,4688
2018-12-20T13:08:15.257Z,4596
2018-12-20T13:09:16.622Z,4432
2018-12-20T13:10:18.058Z,5616
2018-12-20T13:11:19.481Z,6964
2018-12-20T13:12:20.929Z,5292
2018-12-20T13:13:22.328Z,4236
2018-12-20T13:14:23.761Z,4196
2018-12-20T13:15:25.195Z,4140
2018-12-20T13:16:26.636Z,4492
2018-12-20T13:17:28.056Z,4304
2018-12-20T13:18:29.462Z,4020
2018-12-20T13:19:30.901Z,3868
2018-12-20T13:20:32.338Z,4016
2018-12-20T13:21:33.783Z,3964
2018-12-20T13:22:35.289Z,3484
2018-12-20T13:23:36.748Z,3656
2018-12-20T13:24:40.228Z,4184
2018-12-20T13:25:39.589Z,4440
2018-12-20T13:26:41.082Z,3968
2018-12-20T13:27:42.534Z,3908
2018-12-20T13:28:43.951Z,3972
2018-12-20T13:29:45.398Z,4128
2018-12-20T13:30:46.833Z,5016
2018-12-20T13:31:48.317Z,4496
2018-12-20T13:32:49.723Z,3944
2018-12-20T13:33:51.100Z,3912
2018-12-20T13:34:52.562Z,4244
2018-12-20T13:35:53.991Z,5240
2018-12-20T13:36:55.414Z,5912
2018-12-20T13:37:56.853Z,5948
2018-12-20T13:38:58.521Z,4412
2018-12-20T13:39:59.922Z,3352
2018-12-20T13:41:01.339Z,3704
2018-12-20T13:42:03.784Z,3804
2018-12-20T13:43:04.175Z,4464
2018-12-20T13:44:05.627Z,4024
2018-12-20T13:45:07.153Z,4176
2018-12-20T13:46:08.556Z,4860
2018-12-20T13:47:10.100Z,4632
2018-12-20T13:48:11.538Z,4044
2018-12-20T13:49:12.978Z,3780
2018-12-20T13:50:14.405Z,3968
2018-12-20T13:51:15.885Z,3736
2018-12-20T13:52:17.304Z,4160
2018-12-20T13:53:18.719Z,5224
2018-12-20T13:54:20.125Z,3520
2018-12-20T13:55:21.603Z,2640
2018-12-20T13:56:23.026Z,2016
2018-12-20T13:57:24.476Z,1712
2018-12-20T13:58:25.914Z,1332
2018-12-20T13:59:27.326Z,1336
2018-12-20T14:00:28.824Z,1372
2018-12-20T14:01:30.241Z,1208
2018-12-20T14:02:31.636Z,1052
2018-12-20T14:03:33.146Z,936
2018-12-20T14:04:34.550Z,784
2018-12-20T14:05:36.012Z,664
2018-12-20T14:06:37.427Z,596
2018-12-20T14:07:38.841Z,540
2018-12-20T14:08:40.271Z,552
2018-12-20T14:09:41.716Z,516
2018-12-20T14:10:43.127Z,500
2018-12-20T14:11:44.543Z,536
2018-12-20T14:12:45.965Z,560
2018-12-20T14:13:47.420Z,476
2018-12-20T14:14:48.850Z,436
2018-12-20T14:15:50.261Z,512
2018-12-20T14:16:51.693Z,512
2018-12-20T14:17:53.131Z,504
2018-12-20T14:18:54.608Z,524
2018-12-20T14:19:56.038Z,512
2018-12-20T14:20:57.480Z,496
2018-12-20T14:21:58.892Z,508
2018-12-20T14:23:00.327Z,584
2018-12-20T14:24:01.762Z,688
2018-12-20T14:25:03.344Z,744
2018-12-20T14:26:04.776Z,808
2018-12-20T14:27:06.219Z,840
2018-12-20T14:28:07.618Z,840
2018-12-20T14:29:09.057Z,856
2018-12-20T14:30:10.490Z,860
2018-12-20T14:31:11.894Z,840
2018-12-20T14:32:13.372Z,792
2018-12-20T14:33:14.785Z,776
2018-12-20T14:34:16.227Z,748
2018-12-20T14:35:17.635Z,748
2018-12-20T14:36:19.043Z,756
2018-12-20T14:37:21.636Z,720
2018-12-20T14:38:21.865Z,688
2018-12-20T14:39:23.300Z,656
2018-12-20T14:40:24.683Z,692
2018-12-20T14:41:26.115Z,760
2018-12-20T14:42:27.575Z,736
2018-12-20T14:43:29.006Z,672
2018-12-20T14:44:30.401Z,656
2018-12-20T14:45:31.828Z,624
2018-12-20T14:46:33.263Z,544
2018-12-20T14:47:34.709Z,528
2018-12-20T14:48:39.527Z,624
2018-12-20T14:49:37.566Z,752
2018-12-20T14:50:39.017Z,760
2018-12-20T14:51:40.556Z,696
2018-12-20T14:52:41.972Z,664
2018-12-20T14:53:43.511Z,660
2018-12-20T14:54:45.300Z,628
2018-12-20T14:55:47.526Z,572
2018-12-20T14:56:48.988Z,512
2018-12-20T14:57:50.407Z,456
2018-12-20T14:58:51.811Z,496
2018-12-20T14:59:53.219Z,568
2018-12-20T15:00:54.619Z,516
2018-12-20T15:01:56.031Z,468
2018-12-20T15:02:57.446Z,412
2018-12-20T15:03:58.838Z,360
2018-12-20T15:05:00.259Z,316
2018-12-20T15:06:01.672Z,248
2018-12-20T15:07:03.099Z,204
2018-12-20T15:08:04.517Z,180
2018-12-20T15:09:05.923Z,168
2018-12-20T15:10:07.366Z,164
2018-12-20T15:11:08.744Z,184
2018-12-20T15:12:10.169Z,176
2018-12-20T15:13:11.650Z,144
2018-12-20T15:14:13.059Z,132
2018-12-20T15:15:14.466Z,144
2018-12-20T15:16:15.897Z,132
2018-12-20T15:17:17.303Z,116
2018-12-20T15:18:18.698Z,108
2018-12-20T15:19:20.136Z,120
2018-12-20T15:20:21.750Z,120
2018-12-20T15:21:23.130Z,116
2018-12-20T15:22:24.502Z,112
2018-12-20T15:23:25.899Z,96
2018-12-20T15:24:27.312Z,84
2018-12-20T15:25:28.825Z,88
2018-12-20T15:26:30.463Z,84
2018-12-20T15:27:31.985Z,76
2018-12-20T15:28:33.404Z,68
2018-12-20T15:29:34.879Z,56
2018-12-20T15:30:36.267Z,52
2018-12-20T15:31:37.700Z,44
2018-12-20T15:32:39.172Z,40
2018-12-20T15:33:40.592Z,36
2018-12-20T15:34:42.030Z,32
2018-12-20T15:35:43.475Z,28
2018-12-20T15:36:44.899Z,24
2018-12-20T15:37:46.331Z,24
2018-12-20T15:38:49.731Z,20
2018-12-20T15:39:49.140Z,20
2018-12-20T15:40:50.614Z,16
2018-12-20T15:41:52.025Z,12
2018-12-20T15:42:53.498Z,16
2018-12-20T15:43:55.205Z,12
2018-12-20T15:44:56.846Z,8
2018-12-20T15:45:58.261Z,8
2018-12-20T15:46:59.671Z,8
2018-12-20T15:48:01.089Z,4
2018-12-20T15:49:02.493Z,4
2018-12-20T15:50:03.907Z,4
2018-12-20T15:51:05.305Z,0
2018-12-20T15:52:06.742Z,4
2018-12-20T15:53:08.167Z,4
2018-12-20T15:54:09.575Z,0
2018-12-20T15:55:10.980Z,0
2018-12-20T15:56:12.376Z,0
2018-12-20T15:57:13.783Z,0
2018-12-20T15:58:15.176Z,0
2018-12-20T15:59:16.556Z,0
2018-12-20T16:00:17.940Z,0
2018-12-20T16:01:19.333Z,0
2018-12-20T16:02:20.725Z,0
2018-12-20T16:03:22.103Z,0
2018-12-20T16:04:23.489Z,0
2018-12-20T16:05:24.870Z,0
2018-12-20T16:06:26.682Z,0
2018-12-20T16:07:28.048Z,0
2018-12-20T16:08:29.423Z,0
2018-12-20T16:09:30.819Z,0
2018-12-20T16:10:32.237Z,0
2018-12-20T16:11:33.653Z,0
2018-12-20T16:12:35.052Z,0
2018-12-20T16:13:36.420Z,0
2018-12-20T16:14:37.828Z,0
2018-12-20T16:15:39.205Z,0
2018-12-20T16:16:40.623Z,0
2018-12-20T16:17:42.002Z,0
2018-12-20T16:18:43.391Z,0
2018-12-20T16:19:44.802Z,0
2018-12-20T16:20:46.189Z,0
2018-12-20T16:21:47.568Z,0
2018-12-20T16:22:48.953Z,0
2018-12-20T16:23:50.359Z,0
2018-12-20T16:24:51.755Z,0
2018-12-20T16:25:53.160Z,0
2018-12-20T16:26:54.566Z,0
2018-12-20T16:27:55.946Z,0
2018-12-20T16:28:57.331Z,0
2018-12-20T16:29:58.721Z,0
2018-12-20T16:31:00.092Z,0
2018-12-20T16:32:01.486Z,0
2018-12-20T16:33:02.851Z,0
2018-12-20T16:34:04.235Z,0
2018-12-20T16:35:05.613Z,0
2018-12-20T16:36:06.992Z,0
2018-12-20T16:37:08.365Z,0
2018-12-20T16:38:12.553Z,0
2018-12-20T16:39:13.961Z,0
2018-12-20T16:40:15.359Z,0
2018-12-20T16:41:16.940Z,0
2018-12-20T16:42:18.364Z,0
2018-12-20T16:43:19.749Z,0
2018-12-20T16:44:21.181Z,0
2018-12-20T16:45:22.581Z,0
2018-12-20T16:46:23.966Z,0
2018-12-20T16:47:25.358Z,0
2018-12-20T16:48:26.769Z,0
2018-12-20T16:49:28.134Z,0
2018-12-20T16:50:29.549Z,0
2018-12-20T16:51:30.946Z,0
2018-12-20T16:52:32.404Z,0
2018-12-20T16:53:33.787Z,0
2018-12-20T16:54:35.164Z,0
2018-12-20T16:55:36.667Z,0
2018-12-20T16:56:38.064Z,0
2018-12-20T16:57:39.457Z,0
2018-12-20T16:58:40.878Z,0
2018-12-20T16:59:42.277Z,0
2018-12-20T17:00:43.670Z,0
2018-12-20T17:01:45.071Z,0
2018-12-20T17:02:46.462Z,0
2018-12-20T17:03:48.018Z,0
2018-12-20T17:04:49.458Z,0
2018-12-20T17:05:50.864Z,0
2018-12-20T17:06:52.286Z,0
2018-12-20T17:07:53.679Z,0
2018-12-20T17:08:55.118Z,0
2018-12-20T17:09:56.540Z,0
2018-12-20T17:10:57.979Z,0
2018-12-20T17:11:59.376Z,0
2018-12-20T17:13:00.807Z,0
2018-12-20T17:14:02.218Z,0
2018-12-20T17:15:03.606Z,0
2018-12-20T17:16:05.146Z,0
2018-12-20T17:17:06.423Z,0
2018-12-20T17:18:07.881Z,0
2018-12-20T17:19:09.283Z,0
2018-12-20T17:20:10.691Z,0
2018-12-20T17:21:12.121Z,0
2018-12-20T17:22:13.535Z,0
2018-12-20T17:23:14.922Z,0
2018-12-20T17:24:16.384Z,0
2018-12-20T17:25:17.795Z,0
2018-12-20T17:26:19.228Z,0
2018-12-20T17:27:20.626Z,0
2018-12-20T17:28:22.464Z,0
2018-12-20T17:29:23.975Z,0
2018-12-20T17:30:25.386Z,0
2018-12-20T17:31:26.797Z,0
2018-12-20T17:32:28.217Z,0
2018-12-20T17:33:29.624Z,0
2018-12-20T17:34:31.108Z,0
2018-12-20T17:35:32.533Z,0
2018-12-20T17:36:33.961Z,0
2018-12-20T17:37:35.390Z,0
2018-12-20T17:38:36.820Z,0
2018-12-20T17:39:38.237Z,0
2018-12-20T17:40:39.651Z,0
2018-12-20T17:41:41.186Z,0
2018-12-20T17:42:42.598Z,0
2018-12-20T17:43:43.958Z,0
2018-12-20T17:44:45.367Z,0
2018-12-20T17:45:46.769Z,0
2018-12-20T17:46:48.234Z,0
2018-12-20T17:47:49.641Z,0
2018-12-20T17:48:51.082Z,0
2018-12-20T17:49:52.501Z,0
2018-12-20T17:50:53.965Z,0
2018-12-20T17:51:55.393Z,0
2018-12-20T17:52:56.792Z,0
2018-12-20T17:53:58.220Z,0
2018-12-20T17:54:59.654Z,0
2018-12-20T17:56:01.103Z,0
2018-12-20T17:57:02.565Z,0
2018-12-20T17:58:03.993Z,0
2018-12-20T17:59:05.418Z,0
2018-12-20T18:00:06.857Z,0
2018-12-20T18:01:08.290Z,0
2018-12-20T18:02:09.696Z,0
2018-12-20T18:03:11.157Z,0
2018-12-20T18:04:12.575Z,0
2018-12-20T18:05:14.008Z,0
2018-12-20T18:06:15.419Z,0
2018-12-20T18:07:16.899Z,0
2018-12-20T18:08:18.342Z,0
2018-12-20T18:09:19.794Z,0
2018-12-20T18:10:21.420Z,0
2018-12-20T18:11:22.872Z,0
2018-12-20T18:12:24.321Z,0
2018-12-20T18:13:25.736Z,0
2018-12-20T18:14:27.170Z,0
2018-12-20T18:15:28.617Z,0
2018-12-20T18:16:30.048Z,0
2018-12-20T18:17:31.452Z,0
2018-12-20T18:18:32.876Z,0
2018-12-20T18:19:39.032Z,0
2018-12-20T18:20:35.614Z,0
2018-12-20T18:21:37.089Z,0
2018-12-20T18:22:38.486Z,0
2018-12-20T18:23:39.882Z,0
2018-12-20T18:24:41.295Z,0
2018-12-20T18:25:42.677Z,0
2018-12-20T18:26:44.161Z,0
2018-12-20T18:27:45.678Z,0
2018-12-20T18:28:47.773Z,0
2018-12-20T18:29:49.137Z,0
2018-12-20T18:30:50.518Z,0
2018-12-20T18:31:52.084Z,0
2018-12-20T18:32:53.505Z,0
2018-12-20T18:33:56.602Z,0
2018-12-20T18:35:00.057Z,0
2018-12-20T18:36:02.514Z,0
2018-12-20T18:37:04.473Z,0
2018-12-20T18:38:06.021Z,0
2018-12-20T18:39:08.903Z,0
2018-12-20T18:40:10.242Z,0
2018-12-20T18:41:11.644Z,0
2018-12-20T18:42:13.030Z,0
2018-12-20T18:43:14.400Z,0
2018-12-20T18:44:15.789Z,0
2018-12-20T18:45:17.305Z,0
2018-12-20T18:46:18.708Z,0
2018-12-20T18:47:20.084Z,0
2018-12-20T18:48:21.440Z,0
2018-12-20T18:49:23.025Z,0
2018-12-20T18:50:24.387Z,0
2018-12-20T18:51:25.802Z,0
2018-12-20T18:52:27.188Z,0
2018-12-20T18:53:28.600Z,0
2018-12-20T18:54:29.999Z,0
2018-12-20T18:55:31.421Z,0
2018-12-20T18:56:32.817Z,0
2018-12-20T18:57:34.205Z,0
2018-12-20T18:58:35.906Z,0
2018-12-20T18:59:37.588Z,0
2018-12-20T19:00:38.953Z,0
2018-12-20T19:01:40.349Z,0
2018-12-20T19:02:41.735Z,0
2018-12-20T19:03:43.134Z,0
2018-12-20T19:04:44.518Z,0
2018-12-20T19:05:45.903Z,0
2018-12-20T19:06:47.285Z,0
2018-12-20T19:07:48.682Z,0
2018-12-20T19:08:50.057Z,0
2018-12-20T19:09:51.449Z,0
2018-12-20T19:10:52.825Z,0
2018-12-20T19:11:54.199Z,0
2018-12-20T19:12:55.583Z,0
2018-12-20T19:13:57.002Z,0
2018-12-20T19:14:58.375Z,0
2018-12-20T19:15:59.775Z,0
2018-12-20T19:17:01.216Z,0
2018-12-20T19:18:02.591Z,0
2018-12-20T19:19:03.992Z,0
2018-12-20T19:20:05.510Z,0
2018-12-20T19:21:07.127Z,0
2018-12-20T19:22:08.763Z,0
2018-12-20T19:23:10.498Z,0
2018-12-20T19:24:12.169Z,0
2018-12-20T19:25:13.874Z,0
2018-12-20T19:26:15.478Z,0
2018-12-20T19:27:17.099Z,0
2018-12-20T19:28:18.712Z,0
2018-12-20T19:29:20.291Z,0
2018-12-20T19:30:21.966Z,0
2018-12-20T19:31:23.619Z,0
2018-12-20T19:32:25.283Z,0
2018-12-20T19:33:26.662Z,0
2018-12-20T19:34:28.039Z,0
2018-12-20T19:35:29.423Z,0
2018-12-20T19:36:30.807Z,0
2018-12-20T19:37:32.180Z,0
2018-12-20T19:38:33.552Z,0
2018-12-20T19:39:34.959Z,0
2018-12-20T19:40:36.352Z,0
2018-12-20T19:41:37.753Z,0
2018-12-20T19:42:39.146Z,0
2018-12-20T19:43:40.535Z,0
2018-12-20T19:44:41.920Z,0
2018-12-20T19:45:46.238Z,0
2018-12-20T19:46:44.674Z,0
2018-12-20T19:47:46.060Z,0
2018-12-20T19:48:47.439Z,0
2018-12-20T19:49:48.861Z,0
2018-12-20T19:50:50.236Z,0
2018-12-20T19:51:51.627Z,0
2018-12-20T19:52:53.056Z,0
2018-12-20T19:53:54.445Z,0
2018-12-20T19:54:55.842Z,0
2018-12-20T19:55:57.217Z,0
2018-12-20T19:56:58.594Z,0
2018-12-20T19:57:59.972Z,0
2018-12-20T19:59:01.359Z,0
2018-12-20T20:00:02.742Z,0
2018-12-20T20:01:04.176Z,0
2018-12-20T20:02:05.520Z,0
2018-12-20T20:03:07.075Z,0
2018-12-20T20:04:08.668Z,0
2018-12-20T20:05:10.302Z,0
2018-12-20T20:06:11.989Z,0
2018-12-20T20:07:13.732Z,0
2018-12-20T20:08:15.437Z,0
2018-12-20T20:09:17.192Z,0
2018-12-20T20:10:18.812Z,0
2018-12-20T20:11:20.536Z,0
2018-12-20T20:12:22.206Z,0
2018-12-20T20:13:30.501Z,0
2018-12-20T20:14:25.492Z,0
2018-12-20T20:15:27.128Z,0
2018-12-20T20:16:28.786Z,0
2018-12-20T20:17:30.181Z,0
2018-12-20T20:18:31.562Z,0
2018-12-20T20:19:33.017Z,0
2018-12-20T20:20:34.437Z,0
2018-12-20T20:21:35.907Z,0
2018-12-20T20:22:37.319Z,0
2018-12-20T20:23:38.732Z,0
2018-12-20T20:24:40.154Z,0
2018-12-20T20:25:41.617Z,0
2018-12-20T20:26:43.069Z,0
2018-12-20T20:27:44.502Z,0
2018-12-20T20:28:46.167Z,0
2018-12-20T20:29:47.818Z,0
2018-12-20T20:30:49.408Z,0
2018-12-20T20:31:51.082Z,0
2018-12-20T20:32:52.788Z,0
2018-12-20T20:33:54.422Z,0
2018-12-20T20:34:56.085Z,0
2018-12-20T20:35:57.717Z,0
2018-12-20T20:36:59.372Z,0
2018-12-20T20:38:01.147Z,0
2018-12-20T20:39:02.791Z,0
2018-12-20T20:40:04.488Z,0
2018-12-20T20:41:06.145Z,0
2018-12-20T20:42:07.834Z,0
2018-12-20T20:43:09.410Z,0
2018-12-20T20:44:11.078Z,0
2018-12-20T20:45:12.760Z,0
2018-12-20T20:46:14.441Z,0
2018-12-20T20:47:16.121Z,0
2018-12-20T20:48:17.808Z,0
2018-12-20T20:49:19.422Z,0
2018-12-20T20:50:22.687Z,0
2018-12-20T20:51:22.704Z,0
2018-12-20T20:52:24.407Z,0
2018-12-20T20:53:27.070Z,0
2018-12-20T20:54:28.454Z,0
2018-12-20T20:55:29.838Z,0
2018-12-20T20:56:31.215Z,0
2018-12-20T20:57:32.605Z,0
2018-12-20T20:58:33.973Z,0
2018-12-20T20:59:35.356Z,0
2018-12-20T21:00:36.728Z,0
2018-12-20T21:01:38.120Z,0
2018-12-20T21:02:39.518Z,0
2018-12-20T21:03:40.878Z,0
2018-12-20T21:04:42.269Z,0
2018-12-20T21:05:43.677Z,0
2018-12-20T21:06:47.046Z,0
2018-12-20T21:07:46.403Z,0
2018-12-20T21:08:47.786Z,0
2018-12-20T21:09:49.162Z,0
2018-12-20T21:10:50.541Z,0
2018-12-20T21:11:51.915Z,0
2018-12-20T21:12:53.315Z,0
2018-12-20T21:13:54.716Z,0
2018-12-20T21:14:56.107Z,0
2018-12-20T21:15:57.466Z,0
2018-12-20T21:16:58.846Z,0
2018-12-20T21:18:00.228Z,0
2018-12-20T21:19:01.609Z,0
2018-12-20T21:20:03.012Z,0
2018-12-20T21:21:04.410Z,0
2018-12-20T21:22:05.899Z,0
2018-12-20T21:23:07.285Z,0
2018-12-20T21:24:08.648Z,0
2018-12-20T21:25:10.056Z,0
2018-12-20T21:26:11.436Z,0
2018-12-20T21:27:12.837Z,0
2018-12-20T21:28:14.207Z,0
2018-12-20T21:29:15.678Z,0
2018-12-20T21:30:16.959Z,0
2018-12-20T21:31:18.325Z,0
2018-12-20T21:32:19.709Z,0
2018-12-20T21:33:21.092Z,0
2018-12-20T21:34:22.599Z,0
2018-12-20T21:35:24.306Z,0
2018-12-20T21:36:25.778Z,0
2018-12-20T21:37:27.153Z,0
2018-12-20T21:38:28.545Z,0
2018-12-20T21:39:29.935Z,0
2018-12-20T21:40:31.318Z,0
2018-12-20T21:41:32.799Z,0
2018-12-20T21:42:34.186Z,0
2018-12-20T21:43:35.628Z,0
2018-12-20T21:44:37.031Z,0
2018-12-20T21:45:38.416Z,0
2018-12-20T21:46:39.826Z,0
2018-12-20T21:47:41.383Z,0
2018-12-20T21:48:42.937Z,0
2018-12-20T21:49:44.413Z,0
2018-12-20T21:50:45.759Z,0
2018-12-20T21:51:47.148Z,0
2018-12-20T21:52:48.510Z,0
2018-12-20T21:53:54.843Z,0
2018-12-20T21:54:51.372Z,0
2018-12-20T21:55:52.830Z,0
2018-12-20T21:56:54.526Z,0
2018-12-20T21:57:55.902Z,0
2018-12-20T21:58:57.399Z,0
2018-12-20T22:00:01.312Z,0
2018-12-20T22:01:00.287Z,0
2018-12-20T22:02:01.857Z,0
2018-12-20T22:03:03.419Z,0
2018-12-20T22:04:04.864Z,0
2018-12-20T22:05:06.233Z,0
2018-12-20T22:06:07.896Z,0
2018-12-20T22:07:09.341Z,0
2018-12-20T22:08:10.701Z,0
2018-12-20T22:09:12.352Z,0
2018-12-20T22:10:13.907Z,0
2018-12-20T22:11:15.294Z,0
2018-12-20T22:12:16.658Z,0
2018-12-20T22:13:18.286Z,0
2018-12-20T22:14:19.693Z,0
2018-12-20T22:15:21.094Z,0
2018-12-20T22:16:22.594Z,0
2018-12-20T22:17:24.148Z,0
2018-12-20T22:18:25.734Z,0
2018-12-20T22:19:27.119Z,0
2018-12-20T22:20:28.561Z,0
2018-12-20T22:21:29.928Z,0
2018-12-20T22:22:31.339Z,0
2018-12-20T22:23:32.689Z,0
2018-12-20T22:24:34.060Z,0
2018-12-20T22:25:35.438Z,0
2018-12-20T22:26:36.803Z,0
2018-12-20T22:27:38.176Z,0
2018-12-20T22:28:39.545Z,0
2018-12-20T22:29:40.926Z,0
2018-12-20T22:30:42.354Z,0
2018-12-20T22:31:43.764Z,0
2018-12-20T22:32:46.557Z,0
2018-12-20T22:33:46.720Z,0
2018-12-20T22:34:48.211Z,0
2018-12-20T22:35:49.577Z,0
2018-12-20T22:36:51.079Z,0
2018-12-20T22:37:52.466Z,0
2018-12-20T22:39:36.187Z,0
2018-12-20T22:40:38.718Z,0
2018-12-20T22:41:41.000Z,0
2018-12-20T22:42:43.265Z,0
2018-12-20T22:43:45.380Z,0
2018-12-20T22:44:47.515Z,0
2018-12-20T22:45:49.705Z,0
2018-12-20T22:46:52.093Z,0
2018-12-20T22:47:54.051Z,0
2018-12-20T22:48:56.364Z,0
2018-12-20T22:49:58.548Z,0
2018-12-20T22:51:00.811Z,0
2018-12-20T22:52:02.996Z,0
2018-12-20T22:53:07.122Z,0
2018-12-20T22:54:07.417Z,0
2018-12-20T22:55:09.647Z,0
2018-12-20T22:56:11.762Z,0
2018-12-20T22:57:14.661Z,0
2018-12-20T22:58:16.717Z,0
2018-12-20T22:59:18.976Z,0
2018-12-20T23:00:21.116Z,0
2018-12-20T23:01:23.273Z,0
2018-12-20T23:02:25.473Z,0
2018-12-20T23:03:27.604Z,0
2018-12-20T23:04:29.738Z,0
2018-12-20T23:05:31.980Z,0
2018-12-20T23:06:34.311Z,0
2018-12-20T23:07:36.372Z,0
2018-12-20T23:08:38.597Z,0
2018-12-20T23:09:40.714Z,0
2018-12-20T23:10:42.891Z,0
2018-12-20T23:11:45.167Z,0
2018-12-20T23:12:47.211Z,0
2018-12-20T23:13:49.406Z,0
2018-12-20T23:14:51.541Z,0
2018-12-20T23:15:53.665Z,0
2018-12-20T23:16:55.768Z,0
2018-12-20T23:17:57.936Z,0
2018-12-20T23:18:59.988Z,0
2018-12-20T23:20:02.203Z,0
2018-12-20T23:21:05.143Z,0